Time;durP1;ratioP1;P1;durP2;ratioP2;P2;SDS_P1;SDS_P2;PMS_P1;PMS_P2;Temp;Humidity;BMP_temperature;BMP_pressure;BME280_temperature;BME280_humidity;BME280_pressure;Samples;Min_cycle;Max_cycle;Signal;HPM_P1;HPM_P2
2021/12/28 00:01:41;;;;;;;3.23;1.13;;;21.20;99.90;;;;;;5012360;28;20761;-71
2021/12/28 00:04:09;;;;;;;4.03;1.10;;;21.20;99.90;;;;;;5012309;28;20181;-70
2021/12/28 00:06:36;;;;;;;5.63;1.33;;;21.30;99.90;;;;;;5012172;28;20626;-71
2021/12/28 00:09:04;;;;;;;4.17;0.90;;;21.40;99.90;;;;;;5010422;28;20231;-72
2021/12/28 00:11:32;;;;;;;5.10;1.20;;;21.20;99.90;;;;;;5010441;28;20265;-70
2021/12/28 00:14:01;;;;;;;4.60;1.20;;;21.00;99.90;;;;;;5010335;28;20265;-72
2021/12/28 00:17:58;;;;;;;6.57;1.47;;;21.20;99.90;;;;;;5010228;28;20178;-71
2021/12/28 00:19:19;;;;;;;4.23;1.10;;;21.30;99.90;;;;;;5010049;28;20242;-72
2021/12/28 00:21:47;;;;;;;4.20;0.80;;;21.20;99.90;;;;;;5010182;28;20244;-70
2021/12/28 00:24:15;;;;;;;5.40;0.90;;;21.20;99.90;;;;;;5010500;28;20184;-71
2021/12/28 00:26:42;;;;;;;5.97;1.40;;;21.20;99.90;;;;;;5012035;28;20237;-71
2021/12/28 00:29:10;;;;;;;6.87;1.27;;;21.10;99.90;;;;;;5012055;28;20685;-70
2021/12/28 00:31:37;;;;;;;3.07;1.17;;;21.30;99.90;;;;;;4990865;28;20238;-71
2021/12/28 00:34:05;;;;;;;3.93;1.13;;;21.50;99.90;;;;;;4992079;28;20182;-69
2021/12/28 00:36:32;;;;;;;5.40;1.00;;;21.40;99.90;;;;;;4992558;28;20660;-71
2021/12/28 00:39:00;;;;;;;7.00;1.40;;;21.50;99.90;;;;;;4992532;28;20184;-70
2021/12/28 00:41:28;;;;;;;6.23;1.20;;;21.30;99.90;;;;;;4991062;28;20196;-70
2021/12/28 00:43:55;;;;;;;6.20;1.13;;;21.00;99.90;;;;;;4992259;28;20174;-70
2021/12/28 00:46:23;;;;;;;6.53;1.50;;;21.10;99.90;;;;;;4992360;28;20563;-71
2021/12/28 00:48:50;;;;;;;3.73;0.80;;;21.20;99.90;;;;;;4992316;28;20284;-69
2021/12/28 00:51:17;;;;;;;4.90;1.40;;;21.30;99.90;;;;;;4992020;28;20281;-69
2021/12/28 00:53:44;;;;;;;9.00;1.30;;;21.30;99.90;;;;;;4992279;28;20229;-70
2021/12/28 00:56:12;;;;;;;3.67;1.43;;;21.20;99.90;;;;;;4990931;28;20289;-70
2021/12/28 00:58:39;;;;;;;3.83;1.23;;;21.30;99.90;;;;;;4974052;28;20259;-70
2021/12/28 01:01:07;;;;;;;9.13;1.27;;;21.70;99.90;;;;;;4980293;28;20274;-71
2021/12/28 01:03:37;;;;;;;4.47;1.10;;;21.80;99.90;;;;;;4990736;28;20194;-70
2021/12/28 01:06:06;;;;;;;4.30;0.70;;;21.90;99.90;;;;;;4993381;28;20551;-69
2021/12/28 01:08:34;;;;;;;5.83;1.10;;;22.20;99.90;;;;;;4979631;28;20223;-70
2021/12/28 01:11:01;;;;;;;5.57;1.40;;;22.20;99.90;;;;;;4976429;28;20180;-70
2021/12/28 01:13:29;;;;;;;6.23;1.37;;;22.30;99.90;;;;;;4976282;28;20186;-69
2021/12/28 01:15:57;;;;;;;3.27;1.00;;;22.10;99.90;;;;;;4976564;28;20192;-70
2021/12/28 01:18:25;;;;;;;5.70;1.17;;;22.10;99.90;;;;;;4988326;28;20270;-70
2021/12/28 01:20:52;;;;;;;4.63;1.30;;;22.10;99.90;;;;;;4995927;28;20669;-70
2021/12/28 01:23:20;;;;;;;8.20;1.30;;;22.30;99.90;;;;;;4979476;28;20274;-70
2021/12/28 01:25:47;;;;;;;4.33;1.10;;;22.20;99.90;;;;;;4976269;28;20190;-71
2021/12/28 01:28:15;;;;;;;4.43;1.00;;;22.30;99.90;;;;;;4984773;28;20233;-70
2021/12/28 01:30:42;;;;;;;6.03;1.13;;;22.20;99.90;;;;;;4979670;28;20570;-70
2021/12/28 01:33:10;;;;;;;5.40;1.03;;;22.30;99.90;;;;;;4976007;28;20185;-70
2021/12/28 01:35:38;;;;;;;3.37;1.03;;;22.50;99.90;;;;;;4976153;28;20256;-70
2021/12/28 01:38:06;;;;;;;7.40;1.20;;;22.40;99.90;;;;;;4984869;28;20188;-69
2021/12/28 01:40:39;;;;;;;4.53;0.90;;;22.50;99.90;;;;;;4995557;28;20191;-72
2021/12/28 01:43:07;;;;;;;8.03;1.20;;;22.30;99.90;;;;;;4995355;28;20224;-69
2021/12/28 01:45:48;;;;;;;4.17;0.87;;;22.40;99.90;;;;;;4995069;28;20560;-70
2021/12/28 01:48:22;;;;;;;6.10;1.13;;;22.60;99.90;;;;;;4987363;28;20221;-69
2021/12/28 01:50:53;;;;;;;4.97;1.20;;;22.80;99.90;;;;;;4993506;28;20541;-70
2021/12/28 01:53:20;;;;;;;5.73;1.00;;;22.90;99.90;;;;;;4994970;28;20652;-71
2021/12/28 01:55:53;;;;;;;3.87;1.00;;;22.40;99.90;;;;;;4994797;28;20183;-70
2021/12/28 01:58:21;;;;;;;11.17;1.13;;;22.30;99.90;;;;;;4985042;28;20187;-70
2021/12/28 02:00:51;;;;;;;8.20;1.47;;;22.20;99.90;;;;;;4983843;28;20184;-69
2021/12/28 02:03:22;;;;;;;4.87;1.10;;;22.20;99.90;;;;;;4979609;28;20202;-71
2021/12/28 02:05:50;;;;;;;8.50;1.40;;;21.80;99.90;;;;;;4983883;28;20189;-69
2021/12/28 02:08:18;;;;;;;5.77;1.30;;;21.60;99.90;;;;;;4976479;28;20649;-70
2021/12/28 02:10:48;;;;;;;11.53;1.50;;;21.70;99.90;;;;;;4988867;28;20633;-69
2021/12/28 02:13:16;;;;;;;5.27;1.40;;;22.30;99.90;;;;;;4994865;28;20175;-69
2021/12/28 02:15:47;;;;;;;6.37;1.20;;;22.40;99.90;;;;;;4987622;28;20194;-69
2021/12/28 02:18:16;;;;;;;4.97;1.20;;;22.50;99.90;;;;;;4974635;28;20226;-69
2021/12/28 02:20:43;;;;;;;11.73;1.67;;;22.50;99.90;;;;;;4975376;28;20245;-70
2021/12/28 02:23:11;;;;;;;6.93;0.90;;;22.20;99.90;;;;;;4975287;28;20182;-70
2021/12/28 02:25:40;;;;;;;3.93;0.90;;;22.10;99.90;;;;;;4980221;28;20193;-69
2021/12/28 02:28:10;;;;;;;5.73;1.30;;;22.20;99.90;;;;;;4994539;28;20276;-70
2021/12/28 02:30:40;;;;;;;5.07;1.43;;;22.80;99.90;;;;;;5005362;28;20260;-71
2021/12/28 02:33:07;;;;;;;9.27;0.90;;;23.30;99.90;;;;;;5014185;28;20189;-69
2021/12/28 02:35:36;;;;;;;3.80;0.77;;;24.50;99.90;;;;;;5009184;28;20186;-71
2021/12/28 02:38:07;;;;;;;4.17;1.00;;;24.90;99.90;;;;;;4994451;28;20197;-71
2021/12/28 02:40:35;;;;;;;2.60;0.67;;;24.70;99.90;;;;;;4994243;28;20183;-70
2021/12/28 02:43:05;;;;;;;6.67;1.00;;;24.40;99.90;;;;;;4996500;28;20234;-71
2021/12/28 02:45:39;;;;;;;4.07;1.20;;;24.00;99.90;;;;;;5009379;28;20192;-70
2021/12/28 02:48:07;;;;;;;6.27;1.10;;;23.90;99.90;;;;;;4994170;28;20202;-70
2021/12/28 02:50:42;;;;;;;5.00;0.90;;;23.70;99.90;;;;;;4994000;28;20193;-70
2021/12/28 02:53:11;;;;;;;10.93;1.00;;;23.60;99.90;;;;;;4994011;28;20192;-70
2021/12/28 02:55:39;;;;;;;9.47;1.00;;;23.70;99.90;;;;;;4998249;28;20564;-71
2021/12/28 02:58:10;;;;;;;3.97;0.83;;;23.50;99.90;;;;;;5013681;28;20560;-69
2021/12/28 03:00:44;;;;;;;4.10;1.20;;;23.20;99.90;;;;;;4996030;28;20182;-71
2021/12/28 03:03:16;;;;;;;5.17;1.07;;;22.90;99.90;;;;;;5013507;28;20188;-70
2021/12/28 03:05:46;;;;;;;2.60;0.90;;;22.70;99.90;;;;;;5008697;28;20201;-72
2021/12/28 03:08:15;;;;;;;3.83;1.10;;;22.80;99.90;;;;;;4993742;28;20216;-70
2021/12/28 03:10:44;;;;;;;7.13;1.13;;;22.90;99.90;;;;;;4993584;28;20194;-68
2021/12/28 03:13:17;;;;;;;5.03;1.33;;;22.50;99.90;;;;;;4993792;28;20244;-70
2021/12/28 03:15:44;;;;;;;5.57;0.80;;;22.60;99.90;;;;;;5000694;28;20665;-71
2021/12/28 03:18:11;;;;;;;3.50;1.03;;;22.70;99.90;;;;;;5013263;28;20586;-70
2021/12/28 03:20:39;;;;;;;9.87;1.10;;;22.80;99.90;;;;;;5013121;28;20180;-71
2021/12/28 03:23:06;;;;;;;10.07;1.30;;;22.70;99.90;;;;;;5013128;28;20172;-71
2021/12/28 03:25:34;;;;;;;9.10;1.40;;;22.90;99.90;;;;;;5008006;28;20179;-71
2021/12/28 03:28:02;;;;;;;7.90;1.07;;;23.00;99.90;;;;;;4993424;28;20228;-70
2021/12/28 03:30:30;;;;;;;6.47;1.43;;;23.10;99.90;;;;;;4992976;28;20232;-71
2021/12/28 03:32:57;;;;;;;7.40;1.20;;;23.10;99.90;;;;;;4993417;28;20182;-71
2021/12/28 03:35:25;;;;;;;4.43;1.07;;;23.00;99.90;;;;;;4994128;28;20646;-73
2021/12/28 03:37:56;;;;;;;3.30;0.93;;;23.00;99.90;;;;;;5012900;28;20704;-72
2021/12/28 03:40:24;;;;;;;2.93;0.80;;;22.80;99.90;;;;;;4997334;28;20194;-69
2021/12/28 03:42:51;;;;;;;6.60;0.90;;;22.70;99.90;;;;;;4993100;28;20272;-70
2021/12/28 03:45:18;;;;;;;2.77;0.70;;;22.60;99.90;;;;;;5001453;28;20561;-71
2021/12/28 03:47:46;;;;;;;6.33;1.27;;;22.60;99.90;;;;;;4993001;28;20210;-71
2021/12/28 03:50:14;;;;;;;6.10;1.00;;;22.70;99.90;;;;;;4993023;28;20194;-71
2021/12/28 03:52:42;;;;;;;4.63;1.00;;;22.70;99.90;;;;;;4975614;28;20193;-72
2021/12/28 03:55:10;;;;;;;3.33;1.00;;;22.80;99.90;;;;;;4993090;28;20187;-70
2021/12/28 03:57:39;;;;;;;3.10;0.90;;;22.80;99.90;;;;;;4993146;28;20718;-70
2021/12/28 04:00:12;;;;;;;3.93;1.10;;;22.60;99.90;;;;;;4993079;28;20181;-72
2021/12/28 04:02:39;;;;;;;5.07;1.00;;;22.50;99.90;;;;;;5008250;28;20274;-70
2021/12/28 04:05:08;;;;;;;6.27;1.70;;;22.30;99.90;;;;;;5010954;28;20595;-70
2021/12/28 04:07:35;;;;;;;3.03;1.10;;;22.50;99.90;;;;;;4993713;28;20206;-69
2021/12/28 04:10:04;;;;;;;5.30;0.90;;;22.40;99.90;;;;;;4992721;28;20198;-70
2021/12/28 04:12:32;;;;;;;6.23;1.10;;;22.40;99.90;;;;;;4992827;28;20239;-70
2021/12/28 04:15:00;;;;;;;6.37;1.30;;;22.20;99.90;;;;;;4976120;28;20634;-70
2021/12/28 04:17:31;;;;;;;7.37;1.30;;;22.30;99.90;;;;;;5012401;28;20267;-69
2021/12/28 04:19:59;;;;;;;6.10;0.97;;;22.40;99.90;;;;;;5012301;28;20643;-70
2021/12/28 04:22:26;;;;;;;8.53;1.10;;;22.60;99.90;;;;;;5008690;28;20178;-70
2021/12/28 04:24:53;;;;;;;6.47;1.20;;;22.60;99.90;;;;;;4992535;28;20595;-70
2021/12/28 04:27:21;;;;;;;5.00;1.10;;;22.60;99.90;;;;;;4992601;28;20271;-71
2021/12/28 04:29:49;;;;;;;4.87;1.17;;;22.50;99.90;;;;;;4992263;28;21002;-70
2021/12/28 04:32:17;;;;;;;6.83;1.07;;;22.50;99.90;;;;;;4992848;28;20188;-71
2021/12/28 04:34:45;;;;;;;7.80;1.30;;;22.50;99.90;;;;;;4992581;28;20178;-71
2021/12/28 04:37:12;;;;;;;12.30;2.60;;;22.50;99.90;;;;;;5010425;28;20182;-70
2021/12/28 04:39:39;;;;;;;17.00;4.33;;;22.70;99.90;;;;;;5011757;28;20258;-69
2021/12/28 04:42:07;;;;;;;16.67;3.67;;;23.00;99.90;;;;;;5014908;28;20219;-69
2021/12/28 04:44:35;;;;;;;16.00;4.47;;;24.20;99.90;;;;;;5015977;28;20193;-69
2021/12/28 04:47:02;;;;;;;6.10;1.00;;;24.10;99.90;;;;;;5001643;28;20218;-70
2021/12/28 04:49:30;;;;;;;8.53;1.67;;;24.10;99.90;;;;;;4996258;28;20713;-70
2021/12/28 04:51:58;;;;;;;12.63;3.63;;;23.80;99.90;;;;;;5013348;28;20315;-69
2021/12/28 04:54:26;;;;;;;13.00;2.43;;;23.70;99.90;;;;;;5015674;28;20212;-69
2021/12/28 04:56:53;;;;;;;61.07;15.27;;;23.80;99.90;;;;;;5007328;28;20194;-69
2021/12/28 04:59:21;;;;;;;42.80;10.07;;;24.10;99.90;;;;;;5009369;28;20559;-69
2021/12/28 05:01:48;;;;;;;18.73;4.20;;;24.20;99.90;;;;;;5013805;28;20185;-69
2021/12/28 05:04:15;;;;;;;9.63;2.90;;;23.70;99.90;;;;;;4996010;28;20217;-68
2021/12/28 05:06:43;;;;;;;13.63;3.43;;;23.40;99.90;;;;;;4978446;28;20562;-69
2021/12/28 05:09:15;;;;;;;12.97;2.03;;;23.40;99.90;;;;;;4995896;28;20218;-69
2021/12/28 05:11:42;;;;;;;5.80;1.00;;;23.20;99.90;;;;;;4995929;28;20193;-69
2021/12/28 05:14:10;;;;;;;7.00;1.13;;;23.20;99.90;;;;;;4997746;28;20183;-69
2021/12/28 05:16:37;;;;;;;7.50;1.23;;;23.10;99.90;;;;;;5015265;28;20555;-70
2021/12/28 05:19:06;;;;;;;7.53;1.30;;;23.10;99.90;;;;;;5011359;28;20185;-69
2021/12/28 05:21:36;;;;;;;4.67;0.70;;;23.00;99.90;;;;;;4998533;28;20735;-70
2021/12/28 05:24:04;;;;;;;5.57;1.00;;;23.00;99.90;;;;;;4995686;28;20167;-69
2021/12/28 05:26:31;;;;;;;7.17;1.27;;;22.90;99.90;;;;;;5012655;28;20690;-69
2021/12/28 05:28:59;;;;;;;5.40;1.20;;;22.50;99.90;;;;;;5015042;28;20222;-69
2021/12/28 05:31:28;;;;;;;4.47;1.00;;;22.60;99.90;;;;;;4994132;28;20262;-69
2021/12/28 05:33:56;;;;;;;4.27;1.10;;;22.60;99.90;;;;;;4994941;28;20193;-70
2021/12/28 05:36:25;;;;;;;6.50;1.20;;;22.70;99.90;;;;;;4979614;28;20215;-69
2021/12/28 05:38:52;;;;;;;3.50;1.00;;;22.70;99.90;;;;;;4976137;28;20226;-70
2021/12/28 05:41:20;;;;;;;5.40;1.33;;;22.70;99.90;;;;;;4976274;28;20227;-69
2021/12/28 05:43:47;;;;;;;8.60;1.50;;;22.50;99.90;;;;;;4975819;28;20250;-70
2021/12/28 05:46:14;;;;;;;5.50;1.30;;;22.30;99.90;;;;;;4992440;28;20217;-68
2021/12/28 05:48:42;;;;;;;5.20;1.17;;;22.40;99.90;;;;;;4995266;28;20244;-69
2021/12/28 05:51:09;;;;;;;6.70;1.70;;;22.30;99.90;;;;;;4995243;28;20171;-70
2021/12/28 05:53:37;;;;;;;8.47;1.53;;;22.40;99.90;;;;;;4974844;28;20183;-72
2021/12/28 05:56:04;;;;;;;2.70;1.07;;;22.30;99.90;;;;;;4990107;28;20241;-70
2021/12/28 05:58:32;;;;;;;3.67;1.00;;;22.10;99.90;;;;;;4993736;28;20182;-69
2021/12/28 06:01:00;;;;;;;5.80;1.10;;;22.30;99.90;;;;;;4995107;28;20598;-69
2021/12/28 06:03:27;;;;;;;3.83;0.90;;;22.40;99.90;;;;;;4993761;28;20182;-70
2021/12/28 06:05:54;;;;;;;6.40;1.20;;;22.10;99.90;;;;;;4981266;28;20194;-72
2021/12/28 06:08:22;;;;;;;6.03;1.20;;;22.00;99.90;;;;;;4975596;28;20210;-69
2021/12/28 06:10:50;;;;;;;7.17;1.03;;;22.10;99.90;;;;;;4993474;28;20636;-69
2021/12/28 06:13:17;;;;;;;6.93;1.13;;;21.90;99.90;;;;;;4989108;28;20175;-71
2021/12/28 06:15:45;;;;;;;2.87;1.00;;;21.60;99.90;;;;;;4985515;28;20265;-70
2021/12/28 06:18:12;;;;;;;5.33;1.27;;;21.30;99.90;;;;;;4975534;28;20646;-71
2021/12/28 06:20:39;;;;;;;6.00;1.20;;;21.10;99.90;;;;;;4985892;28;20210;-71
2021/12/28 06:23:07;;;;;;;9.57;1.60;;;21.00;99.90;;;;;;4984408;28;20561;-70
2021/12/28 06:25:34;;;;;;;8.53;1.03;;;21.10;99.90;;;;;;4977173;28;20181;-69
2021/12/28 06:28:02;;;;;;;7.27;1.20;;;21.90;99.90;;;;;;4975023;28;20284;-70
2021/12/28 06:30:30;;;;;;;4.30;0.80;;;22.60;99.90;;;;;;4994830;28;20268;-69
2021/12/28 06:32:58;;;;;;;3.60;1.00;;;23.00;99.90;;;;;;4994532;28;20649;-69
2021/12/28 06:35:26;;;;;;;2.27;1.20;;;23.20;99.90;;;;;;4994569;28;20174;-70
2021/12/28 06:37:54;;;;;;;5.87;1.30;;;23.30;99.90;;;;;;4994089;28;20179;-69
2021/12/28 06:40:21;;;;;;;5.33;1.17;;;23.50;99.90;;;;;;4998614;28;20179;-69
2021/12/28 06:42:49;;;;;;;5.17;0.90;;;23.40;99.90;;;;;;4994286;28;20213;-70
2021/12/28 06:45:16;;;;;;;4.93;1.13;;;23.00;99.90;;;;;;4994331;28;20178;-70
2021/12/28 06:47:44;;;;;;;3.37;1.00;;;22.70;99.90;;;;;;4997897;28;20285;-70
2021/12/28 06:50:12;;;;;;;2.97;0.83;;;22.20;99.90;;;;;;5012166;28;20213;-70
2021/12/28 06:52:40;;;;;;;6.77;1.20;;;22.10;99.90;;;;;;5013695;28;20577;-69
2021/12/28 06:55:09;;;;;;;6.23;1.60;;;21.90;99.90;;;;;;5013713;28;20277;-69
2021/12/28 06:57:37;;;;;;;4.70;1.07;;;21.80;99.90;;;;;;5013624;28;20216;-69
2021/12/28 07:00:08;;;;;;;3.53;0.80;;;21.60;99.90;;;;;;5004366;28;20645;-69
2021/12/28 07:02:35;;;;;;;4.57;1.33;;;21.90;99.90;;;;;;4993989;28;20265;-68
2021/12/28 07:05:06;;;;;;;3.43;1.27;;;22.00;99.90;;;;;;4993582;28;20190;-70
2021/12/28 07:07:34;;;;;;;4.77;0.90;;;22.20;99.90;;;;;;4976419;28;20211;-70
2021/12/28 07:10:01;;;;;;;3.90;0.90;;;21.90;99.90;;;;;;5003402;28;20204;-70
2021/12/28 07:12:29;;;;;;;4.50;0.93;;;21.40;99.90;;;;;;5013180;28;20743;-68
2021/12/28 07:14:56;;;;;;;4.70;1.10;;;21.60;99.90;;;;;;5013234;28;20182;-68
2021/12/28 07:17:23;;;;;;;15.53;1.17;;;21.70;99.90;;;;;;5012596;28;20204;-68
2021/12/28 07:19:51;;;;;;;6.63;1.43;;;21.70;99.90;;;;;;5005110;28;20186;-68
2021/12/28 07:22:18;;;;;;;5.73;1.03;;;21.40;99.90;;;;;;4993520;28;20959;-68
2021/12/28 07:24:45;;;;;;;4.30;1.07;;;21.90;99.90;;;;;;4993465;28;20673;-69
2021/12/28 07:27:14;;;;;;;5.37;1.50;;;21.90;99.90;;;;;;4993444;28;20194;-69
2021/12/28 07:29:41;;;;;;;5.23;1.30;;;21.80;99.90;;;;;;5000494;28;20233;-69
2021/12/28 07:32:09;;;;;;;4.93;1.63;;;21.90;99.90;;;;;;5012500;28;20262;-69
2021/12/28 07:34:37;;;;;;;6.00;1.10;;;22.00;99.90;;;;;;5012962;28;20173;-69
2021/12/28 07:37:04;;;;;;;4.17;1.10;;;22.20;99.90;;;;;;5012822;28;20684;-70
2021/12/28 07:39:32;;;;;;;2.23;0.87;;;22.10;99.90;;;;;;5006531;28;20198;-70
2021/12/28 07:41:59;;;;;;;3.33;0.80;;;22.10;99.90;;;;;;4993097;28;20178;-69
2021/12/28 07:44:27;;;;;;;4.30;1.10;;;22.20;99.90;;;;;;4994267;28;20642;-70
2021/12/28 07:46:54;;;;;;;5.87;1.10;;;22.10;99.90;;;;;;4991749;28;20596;-69
2021/12/28 07:49:22;;;;;;;3.93;0.80;;;22.10;99.90;;;;;;4997519;28;20746;-69
2021/12/28 07:51:49;;;;;;;4.40;1.43;;;21.80;99.90;;;;;;5006736;28;20186;-70
2021/12/28 07:54:17;;;;;;;8.53;1.13;;;21.50;99.90;;;;;;4993014;28;20178;-69
2021/12/28 07:56:44;;;;;;;3.37;0.97;;;21.10;99.90;;;;;;4993035;28;20179;-68
2021/12/28 07:59:12;;;;;;;7.10;1.00;;;20.90;99.90;;;;;;5003738;28;20642;-68
2021/12/28 08:01:39;;;;;;;4.40;1.07;;;20.90;99.90;;;;;;4993053;28;20617;-70
2021/12/28 08:04:07;;;;;;;6.67;1.07;;;20.70;99.90;;;;;;4975669;28;20590;-70
2021/12/28 08:06:34;;;;;;;4.60;0.80;;;20.60;99.90;;;;;;4992856;28;20186;-67
2021/12/28 08:09:02;;;;;;;5.47;1.33;;;20.60;99.90;;;;;;4993677;28;20688;-68
2021/12/28 08:11:29;;;;;;;3.20;0.80;;;20.50;99.90;;;;;;4992855;28;20564;-69
2021/12/28 08:13:56;;;;;;;3.53;0.80;;;20.50;99.90;;;;;;4996324;28;20196;-67
2021/12/28 08:16:24;;;;;;;7.63;1.07;;;20.40;99.90;;;;;;5011465;28;20622;-68
2021/12/28 08:18:52;;;;;;;4.97;1.10;;;20.30;99.90;;;;;;5012052;28;20186;-69
2021/12/28 08:21:20;;;;;;;3.77;1.07;;;20.30;99.90;;;;;;4992744;28;20183;-70
2021/12/28 08:23:48;;;;;;;6.50;1.17;;;20.10;99.90;;;;;;5010476;28;20217;-69
2021/12/28 08:26:16;;;;;;;5.90;0.80;;;20.00;99.90;;;;;;5012329;28;20171;-70
2021/12/28 08:28:44;;;;;;;2.13;1.23;;;19.90;99.90;;;;;;4994378;28;20780;-69
2021/12/28 08:31:11;;;;;;;6.93;0.93;;;19.80;99.90;;;;;;4994315;28;20277;-69
2021/12/28 08:33:38;;;;;;;2.83;0.80;;;19.70;99.90;;;;;;4992568;28;20178;-69
2021/12/28 08:36:06;;;;;;;5.23;1.10;;;19.70;99.90;;;;;;4975185;28;20191;-69
2021/12/28 08:38:33;;;;;;;6.47;1.13;;;19.80;99.90;;;;;;5007130;28;20701;-70
2021/12/28 08:41:01;;;;;;;5.87;1.60;;;19.70;99.90;;;;;;4997626;28;20175;-69
2021/12/28 08:43:28;;;;;;;6.00;0.80;;;19.70;99.90;;;;;;4992420;28;20217;-70
2021/12/28 08:45:55;;;;;;;5.77;1.10;;;19.70;99.90;;;;;;4992477;28;20189;-70
2021/12/28 08:48:23;;;;;;;5.30;1.07;;;19.50;99.90;;;;;;4993538;28;20219;-69
2021/12/28 08:50:51;;;;;;;8.57;1.60;;;19.50;99.90;;;;;;4986051;28;20193;-69
2021/12/28 08:53:18;;;;;;;6.03;1.17;;;19.40;99.90;;;;;;4993410;28;20229;-69
2021/12/28 08:55:46;;;;;;;7.73;1.10;;;19.30;99.90;;;;;;5006332;28;20192;-68
2021/12/28 08:58:15;;;;;;;6.30;1.00;;;19.20;99.90;;;;;;5012777;28;20182;-69
2021/12/28 09:00:43;;;;;;;7.70;1.13;;;19.20;99.90;;;;;;5012799;28;20606;-69
2021/12/28 09:03:10;;;;;;;9.07;1.20;;;19.20;99.90;;;;;;5001158;28;20197;-70
2021/12/28 09:05:38;;;;;;;4.87;1.23;;;19.20;99.90;;;;;;4993809;28;20183;-68
2021/12/28 09:08:09;;;;;;;7.20;1.17;;;19.20;99.90;;;;;;4993000;28;20214;-69
2021/12/28 09:10:36;;;;;;;7.93;1.90;;;19.10;99.90;;;;;;4994176;28;20193;-69
2021/12/28 09:13:04;;;;;;;7.87;1.27;;;19.10;99.90;;;;;;4992899;28;20175;-68
2021/12/28 09:15:32;;;;;;;5.83;1.20;;;19.00;99.90;;;;;;5005217;28;20193;-69
2021/12/28 09:17:59;;;;;;;3.10;0.93;;;18.90;99.90;;;;;;5012331;28;20178;-70
2021/12/28 09:20:27;;;;;;;5.50;1.20;;;18.90;99.90;;;;;;5012400;28;20228;-69
2021/12/28 09:22:56;;;;;;;4.33;1.10;;;18.80;99.90;;;;;;4995433;28;20277;-69
2021/12/28 09:25:24;;;;;;;4.50;1.10;;;18.80;99.90;;;;;;5003259;28;20269;-69
2021/12/28 09:27:52;;;;;;;6.30;1.00;;;18.80;99.90;;;;;;5013886;28;20678;-69
2021/12/28 09:30:20;;;;;;;5.43;1.03;;;18.80;99.90;;;;;;4992766;28;20600;-69
2021/12/28 09:32:48;;;;;;;7.47;1.13;;;18.70;99.90;;;;;;4976298;28;20221;-69
2021/12/28 09:35:16;;;;;;;4.43;1.17;;;18.60;99.90;;;;;;4985494;28;20647;-69
2021/12/28 09:37:44;;;;;;;8.60;1.20;;;18.60;99.90;;;;;;4994020;28;20190;-68
2021/12/28 09:40:12;;;;;;;5.73;1.40;;;18.50;99.90;;;;;;4997716;28;20187;-68
2021/12/28 09:42:42;;;;;;;10.57;1.63;;;18.50;99.90;;;;;;5000737;28;20226;-70
2021/12/28 09:45:13;;;;;;;7.37;1.10;;;18.40;99.90;;;;;;4998411;28;20652;-69
2021/12/28 09:47:42;;;;;;;5.60;1.13;;;18.50;99.90;;;;;;4998119;28;20546;-69
2021/12/28 09:50:13;;;;;;;6.73;1.40;;;18.30;99.90;;;;;;4995709;28;20190;-69
2021/12/28 09:52:44;;;;;;;3.33;1.03;;;18.40;99.90;;;;;;5006306;28;20167;-68
2021/12/28 09:55:14;;;;;;;4.23;1.20;;;18.40;99.90;;;;;;5013464;28;20202;-69
2021/12/28 09:57:44;;;;;;;5.13;1.00;;;18.40;99.90;;;;;;5010906;28;20210;-70
2021/12/28 10:00:13;;;;;;;10.67;2.10;;;18.40;99.90;;;;;;5004331;28;20536;-68
2021/12/28 10:02:40;;;;;;;3.93;1.07;;;18.30;99.90;;;;;;4994102;28;20206;-68
2021/12/28 10:05:10;;;;;;;6.97;1.57;;;18.30;99.90;;;;;;4995554;28;20183;-70
2021/12/28 10:07:45;;;;;;;3.90;1.00;;;18.30;99.90;;;;;;4975350;28;20211;-69
2021/12/28 10:10:12;;;;;;;3.43;1.07;;;18.30;99.90;;;;;;4990548;28;20191;-69
2021/12/28 10:12:45;;;;;;;5.73;1.30;;;18.20;99.90;;;;;;4974400;28;20183;-71
2021/12/28 10:15:23;;;;;;;4.47;1.10;;;18.20;99.90;;;;;;4981097;28;20286;-69
2021/12/28 10:17:53;;;;;;;5.23;1.00;;;18.10;99.90;;;;;;4994522;28;20229;-71
2021/12/28 10:20:28;;;;;;;5.40;1.30;;;18.10;99.90;;;;;;4994742;28;20266;-70
2021/12/28 10:22:59;;;;;;;5.60;1.73;;;18.00;99.90;;;;;;4994797;28;20197;-70
2021/12/28 10:25:33;;;;;;;4.60;1.20;;;18.00;99.90;;;;;;4987754;28;20176;-69
2021/12/28 10:28:07;;;;;;;7.73;1.50;;;18.00;99.90;;;;;;4991276;28;20305;-69
2021/12/28 10:30:40;;;;;;;5.73;1.63;;;18.00;99.90;;;;;;4986697;28;20238;-70
2021/12/28 10:33:15;;;;;;;4.33;0.93;;;17.90;99.90;;;;;;4995907;28;20646;-70
2021/12/28 10:35:47;;;;;;;8.63;1.63;;;17.90;99.90;;;;;;5005816;28;20186;-70
2021/12/28 10:38:24;;;;;;;3.63;1.20;;;18.00;99.90;;;;;;5015139;28;20224;-70
2021/12/28 10:40:59;;;;;;;3.93;1.00;;;18.00;99.90;;;;;;5015386;28;20185;-72
2021/12/28 10:43:33;;;;;;;6.23;1.30;;;18.00;99.90;;;;;;5015386;28;20239;-72
2021/12/28 10:46:04;;;;;;;10.30;1.77;;;18.00;99.90;;;;;;5002401;28;20179;-69
2021/12/28 10:48:46;;;;;;;5.23;1.20;;;18.00;99.90;;;;;;4995668;28;20222;-68
2021/12/28 10:51:18;;;;;;;8.63;1.60;;;18.00;99.90;;;;;;4995589;28;20171;-68
2021/12/28 10:56:33;;;;;;;6.10;1.13;;;18.00;99.90;;;;;;5002662;28;20179;-71
2021/12/28 10:59:01;;;;;;;7.07;1.40;;;17.90;99.90;;;;;;4995365;28;20190;-70
2021/12/28 11:01:32;;;;;;;10.77;1.80;;;18.00;99.90;;;;;;4996750;28;20186;-70
2021/12/28 11:04:04;;;;;;;4.33;1.33;;;17.90;99.90;;;;;;4996526;28;20261;-71
2021/12/28 11:06:34;;;;;;;4.47;1.77;;;17.90;99.90;;;;;;4998820;28;20187;-71
2021/12/28 11:09:06;;;;;;;5.53;1.00;;;17.80;99.90;;;;;;4995097;28;20291;-70
2021/12/28 11:11:35;;;;;;;6.13;1.17;;;17.80;99.90;;;;;;5005077;28;20189;-72
2021/12/28 11:14:09;;;;;;;5.97;1.20;;;17.70;99.90;;;;;;5005397;28;20274;-70
2021/12/28 11:16:37;;;;;;;6.03;1.10;;;17.70;99.90;;;;;;4998706;28;20259;-69
2021/12/28 11:19:07;;;;;;;4.90;1.03;;;17.70;99.90;;;;;;4994379;28;20186;-68
2021/12/28 11:21:41;;;;;;;4.00;1.10;;;17.60;99.90;;;;;;4994942;28;20182;-70
2021/12/28 11:24:15;;;;;;;2.90;0.80;;;17.60;99.90;;;;;;4995138;28;20201;-71
2021/12/28 11:26:42;;;;;;;3.87;0.80;;;17.50;99.90;;;;;;5011141;28;20182;-72
2021/12/28 11:29:15;;;;;;;2.97;1.17;;;17.50;99.90;;;;;;5014555;28;20216;-71
2021/12/28 11:31:52;;;;;;;9.00;1.20;;;17.40;99.90;;;;;;5014066;28;20560;-70
2021/12/28 11:34:34;;;;;;;4.47;1.00;;;17.40;99.90;;;;;;5014460;28;20213;-70
2021/12/28 11:37:20;;;;;;;5.53;1.13;;;17.40;99.90;;;;;;4978359;28;20225;-70
2021/12/28 11:39:59;;;;;;;5.27;1.17;;;17.30;99.90;;;;;;4994627;28;20194;-70
2021/12/28 11:42:28;;;;;;;7.63;1.40;;;17.30;99.90;;;;;;4994291;28;20648;-70
2021/12/28 11:44:55;;;;;;;9.13;1.57;;;17.20;99.90;;;;;;4995696;28;20190;-70
2021/12/28 11:47:25;;;;;;;5.33;1.17;;;17.30;99.90;;;;;;5014290;28;20212;-70
2021/12/28 11:49:56;;;;;;;3.33;1.17;;;17.20;99.90;;;;;;4995990;28;20316;-71
2021/12/28 11:52:23;;;;;;;4.20;1.40;;;17.20;99.90;;;;;;5009449;28;20265;-72
2021/12/28 11:54:54;;;;;;;2.43;1.40;;;17.20;99.90;;;;;;4977426;28;20191;-69
2021/12/28 11:57:27;;;;;;;3.50;0.90;;;17.10;99.90;;;;;;5014074;28;20549;-70
2021/12/28 12:00:04;;;;;;;8.03;1.70;;;17.10;99.90;;;;;;5001908;28;20209;-69
2021/12/28 12:02:52;;;;;;;4.20;1.37;;;17.00;99.90;;;;;;4994431;28;20179;-70
2021/12/28 12:05:26;;;;;;;5.17;1.00;;;17.00;99.90;;;;;;4977857;28;20982;-69
2021/12/28 12:08:11;;;;;;;6.53;1.67;;;16.90;99.90;;;;;;5003559;28;20190;-70
2021/12/28 12:10:41;;;;;;;5.97;1.20;;;16.90;99.90;;;;;;5013361;28;20327;-68
2021/12/28 12:13:15;;;;;;;6.30;1.20;;;16.80;99.90;;;;;;5009438;28;20187;-72
2021/12/28 12:15:47;;;;;;;6.10;1.13;;;16.80;99.90;;;;;;5000675;28;20682;-70
2021/12/28 12:18:18;;;;;;;10.27;1.20;;;16.70;99.90;;;;;;5013692;28;20181;-69
2021/12/28 12:20:49;;;;;;;4.57;1.23;;;16.70;99.90;;;;;;5013831;28;20643;-71
2021/12/28 12:23:19;;;;;;;9.80;1.40;;;16.60;99.90;;;;;;5013735;28;20174;-72
2021/12/28 12:25:57;;;;;;;6.27;1.20;;;16.60;99.90;;;;;;5006071;28;20183;-71
2021/12/28 12:28:41;;;;;;;4.83;1.00;;;16.50;99.90;;;;;;4993858;28;20305;-69
2021/12/28 12:31:21;;;;;;;4.37;1.27;;;16.50;99.90;;;;;;4993758;28;20252;-71
2021/12/28 12:33:49;;;;;;;6.07;1.73;;;16.40;99.90;;;;;;4994134;28;20583;-72
2021/12/28 12:36:41;;;;;;;2.90;1.30;;;16.40;99.90;;;;;;5004824;28;20189;-72
2021/12/28 12:39:10;;;;;;;3.03;1.20;;;16.40;99.90;;;;;;4999720;28;20276;-71
2021/12/28 12:41:42;;;;;;;11.17;1.53;;;16.30;99.90;;;;;;4993891;28;20662;-72
2021/12/28 12:44:13;;;;;;;5.13;1.20;;;16.30;99.90;;;;;;4994008;28;20175;-72
2021/12/28 12:46:44;;;;;;;5.27;1.83;;;16.20;99.90;;;;;;4992675;28;20190;-70
2021/12/28 12:49:16;;;;;;;7.00;1.10;;;16.20;99.90;;;;;;5013327;28;20217;-69
2021/12/28 12:51:52;;;;;;;4.63;1.20;;;16.20;99.90;;;;;;5013561;28;20178;-71
2021/12/28 12:54:41;;;;;;;9.13;1.60;;;16.10;99.90;;;;;;5000407;28;20265;-72
2021/12/28 12:57:11;;;;;;;7.70;1.27;;;16.10;99.90;;;;;;5011862;28;20651;-70
2021/12/28 12:59:41;;;;;;;9.70;1.20;;;16.10;99.90;;;;;;5012925;28;20546;-71